AirNav   Pilot Hours Calculator
 
 1695 users online  

83GA Brock Airpark
Bainbridge, Georgia, USA

GOING TO BAINBRIDGE?


FAA INFORMATION EFFECTIVE 09 SEPTEMBER 2021

Location

FAA Identifier: 83GA
Lat/Long: 30-59-59.0000N 084-30-22.0000W
30-59.983333N 084-30.366667W
30.9997222,-84.5061111
(estimated)
Elevation: 130 ft. / 40 m (estimated)
Variation: 02W (1990)
From city: 5 miles N of BAINBRIDGE, GA
Time zone: UTC -4 (UTC -5 during Standard Time)
Zip code: 31717

Airport Operations

Airport use: Private use. Permission required prior to landing
Activation date: 08/1992
Control tower: no
ARTCC: JACKSONVILLE CENTER
FSS: MACON FLIGHT SERVICE STATION
Attendance: CONTINUOUS
Wind indicator: yes
Segmented circle: no

Airport Communications

UNICOM: 122.8
WX AWOS-3PT at BGE (7 nm W): 121.125 (229-248-2104)
WX AWOS-3T at CXU (19 nm NE): 118.675 (229-336-0744)
WX AWOS-3PT at 17J (19 nm W): 119.675 (229-524-0001)

Nearby radio navigation aids

VOR radial/distance  VOR name  Freq  Var
SZWr344/27.5SEMINOLE VORTAC117.5002E
MAIr068/34.3MARIANNA VORTAC114.0000E

 
NDB name  Hdg/Dist  Freq  Var  ID
WILLIS035/1.935904WLYZ .-.. -.-- --..
CAIDY295/19.133804WCYR -.-. -.-- .-.
PATON279/35.024505WGTP --. - .--.
SOYYA080/37.832902WSMY ... -- -.--

Airport Services

Fuel available: 100LL

Runway Information

Runway 18/36

Dimensions: 3450 x 100 ft. / 1052 x 30 m
Surface: turf
RUNWAY 18  RUNWAY 36
Traffic pattern: leftleft
Obstructions: 15 ft. roadnone

Airport Ownership and Management from official FAA records

Ownership: Privately-owned
Owner: ADOLPH BROCK, JR
1239 LAKE DOUGLAS ROAD
BAINBRIDGE, GA 31717
Phone 912-246-8652
Manager: STEPHEN B. BROCK
RT 6 BOX 1456 ADOLPH BROCK RD
BAINBRIDGE, GA 31717

Airport Operational Statistics

Aircraft based on the field: 7
Single engine airplanes: 6
Multi engine airplanes: 1
    

Additional Remarks

FOR CD CTC TALLAHASSEE APCH AT 850-942-8311, WHEN APCH CLSD CTC JACKSONVILLE ARTCC AT 904-845-1592.

Instrument Procedures

There are no published instrument procedures at 83GA.

Some nearby airports with instrument procedures:

KBGE - Decatur County Industrial Air Park (7 nm W)
KCXU - Camilla-Mitchell County Airport (19 nm NE)
17J - Donalsonville Municipal Airport (19 nm W)
70J - Cairo-Grady County Airport (19 nm E)
2J9 - Quincy Municipal Airport (24 nm S)
 
Loc | Ops | Rwys | IFR | FBO | Links
Com | Nav | Svcs | Stats | Notes
Area around 83GA (Brock Airpark)
 
Road maps at: MapQuest Bing Google
 
Aerial photo
No photo
 
Sectional chart

 
Airport distance calculator
Flying to Brock Airpark? Find the distance to fly.

From to 83GA

Sunrise and sunset
Times for 21-Sep-2021
 Local
(UTC-4)
 Zulu
(UTC)
Morning civil twilight07:0311:03
Sunrise07:2711:27
Sunset19:3623:36
Evening civil twilight20:0024:00

Current date and time
Zulu (UTC)  21-Sep-2021 18:41:51
Local (UTC-4)  21-Sep-2021 14:41:51
 
METAR
KBGE 
7nm W 
211635Z AUTO 05003KT 10SM -RA SCT020 BKN033 OVC050 28/25 A3008 RMK AO2 T02800247
KCXU 
19nm NE 
211635Z AUTO 00000KT 10SM BKN018 29/25 A3008 RMK AO1 T02900245
K17J 
19nm W 
211630Z AUTO 31003KT 10SM BKN020 BKN030 BKN075 28/23 A3008 RMK AO2 T02830235
TAF
KABY 
36nm NE 
211314Z 2113/2212 00000KT 4SM BR OVC003 FM211500 24004KT P6SM BKN015 BKN030 FM211700 25005KT P6SM SCT030 BKN040 FM211900 25004KT P6SM VCSH SCT030 BKN045 FM220800 21003KT 6SM BR SCT005 SCT035
KTLH 
37nm S 
211253Z 2113/2212 00000KT P6SM BKN005 FM211400 27003KT P6SM SCT010 BKN018 FM211800 22005KT P6SM VCSH SCT030 BKN050 BKN200 TEMPO 2120/2124 3SM TSRA SCT030CB BKN050 FM220100 22004KT P6SM SCT050 FM221000 24003KT P6SM SCT003
NOTAMs
Click for the latest NOTAMs
NOTAMs are issued by the DoD/FAA and will open in a separate window not controlled by AirNav.

 

 
 

Would you like to see your business listed on this page?

 If your business provides an interesting product or service to pilots, flight crews, aircraft, or users of the Brock Airpark, you should consider listing it here.  To start the listing process, click on the button below
 
Add a business
 

Other Pages about Brock Airpark

Update a link
 
Copyright © AirNav, LLC. All rights reserved. Privacy Policy  Contact